sensor_id;sensor_type;location;lat;lon;timestamp;temperature;humidity
9329;DHT22;4703;48.748;19.142;2023-04-29T00:01:19;12.40;99.90
9329;DHT22;4703;48.748;19.142;2023-04-29T00:03:46;11.70;99.90
9329;DHT22;4703;48.748;19.142;2023-04-29T00:06:13;10.30;99.90
9329;DHT22;4703;48.748;19.142;2023-04-29T00:08:41;12.80;99.90
9329;DHT22;4703;48.748;19.142;2023-04-29T00:11:08;11.80;99.90
9329;DHT22;4703;48.748;19.142;2023-04-29T00:13:37;13.00;99.90
9329;DHT22;4703;48.748;19.142;2023-04-29T00:16:07;10.40;99.90
9329;DHT22;4703;48.748;19.142;2023-04-29T00:18:37;12.20;99.90
9329;DHT22;4703;48.748;19.142;2023-04-29T00:21:04;12.30;99.90
9329;DHT22;4703;48.748;19.142;2023-04-29T00:23:32;10.20;99.90
9329;DHT22;4703;48.748;19.142;2023-04-29T00:25:59;11.80;99.90
9329;DHT22;4703;48.748;19.142;2023-04-29T00:28:26;12.20;99.90
9329;DHT22;4703;48.748;19.142;2023-04-29T00:30:54;12.60;99.90
9329;DHT22;4703;48.748;19.142;2023-04-29T00:33:22;12.20;99.90
9329;DHT22;4703;48.748;19.142;2023-04-29T00:35:49;12.20;99.90
9329;DHT22;4703;48.748;19.142;2023-04-29T00:38:16;12.50;99.90
9329;DHT22;4703;48.748;19.142;2023-04-29T00:40:43;12.60;99.90
9329;DHT22;4703;48.748;19.142;2023-04-29T00:43:11;12.40;99.90
9329;DHT22;4703;48.748;19.142;2023-04-29T00:45:38;12.20;99.90
9329;DHT22;4703;48.748;19.142;2023-04-29T00:48:05;10.70;99.90
9329;DHT22;4703;48.748;19.142;2023-04-29T00:50:33;9.80;99.90
9329;DHT22;4703;48.748;19.142;2023-04-29T00:53:01;12.40;99.90
9329;DHT22;4703;48.748;19.142;2023-04-29T00:55:30;12.10;99.90
9329;DHT22;4703;48.748;19.142;2023-04-29T00:57:58;11.30;99.90
9329;DHT22;4703;48.748;19.142;2023-04-29T01:00:26;12.20;99.90
9329;DHT22;4703;48.748;19.142;2023-04-29T01:02:54;12.10;99.90
9329;DHT22;4703;48.748;19.142;2023-04-29T01:05:23;12.90;99.90
9329;DHT22;4703;48.748;19.142;2023-04-29T01:10:44;10.10;99.90
9329;DHT22;4703;48.748;19.142;2023-04-29T01:13:29;10.50;99.90
9329;DHT22;4703;48.748;19.142;2023-04-29T01:16:03;10.10;99.90
9329;DHT22;4703;48.748;19.142;2023-04-29T01:18:38;10.10;99.90
9329;DHT22;4703;48.748;19.142;2023-04-29T01:21:07;12.20;99.90
9329;DHT22;4703;48.748;19.142;2023-04-29T01:23:34;12.50;99.90
9329;DHT22;4703;48.748;19.142;2023-04-29T01:26:01;10.10;99.90
9329;DHT22;4703;48.748;19.142;2023-04-29T01:28:49;10.10;99.90
9329;DHT22;4703;48.748;19.142;2023-04-29T01:33:59;10.10;99.90
9329;DHT22;4703;48.748;19.142;2023-04-29T01:36:43;10.10;99.90
9329;DHT22;4703;48.748;19.142;2023-04-29T01:42:32;10.10;99.90
9329;DHT22;4703;48.748;19.142;2023-04-29T01:45:05;10.10;99.90
9329;DHT22;4703;48.748;19.142;2023-04-29T01:47:35;10.10;99.90
9329;DHT22;4703;48.748;19.142;2023-04-29T01:50:03;11.90;99.90
9329;DHT22;4703;48.748;19.142;2023-04-29T01:52:30;10.10;99.90
9329;DHT22;4703;48.748;19.142;2023-04-29T01:54:57;12.30;99.90
9329;DHT22;4703;48.748;19.142;2023-04-29T01:57:24;10.10;99.90
9329;DHT22;4703;48.748;19.142;2023-04-29T01:59:51;12.80;99.90
9329;DHT22;4703;48.748;19.142;2023-04-29T02:02:18;11.40;99.90
9329;DHT22;4703;48.748;19.142;2023-04-29T02:04:49;10.00;99.90
9329;DHT22;4703;48.748;19.142;2023-04-29T02:07:16;11.70;99.90
9329;DHT22;4703;48.748;19.142;2023-04-29T02:09:43;11.60;99.90
9329;DHT22;4703;48.748;19.142;2023-04-29T02:12:10;10.10;99.90
9329;DHT22;4703;48.748;19.142;2023-04-29T02:14:37;12.10;99.90
9329;DHT22;4703;48.748;19.142;2023-04-29T02:17:05;10.20;99.90
9329;DHT22;4703;48.748;19.142;2023-04-29T02:19:32;11.60;99.90
9329;DHT22;4703;48.748;19.142;2023-04-29T02:21:59;12.70;99.90
9329;DHT22;4703;48.748;19.142;2023-04-29T02:24:26;9.90;99.90
9329;DHT22;4703;48.748;19.142;2023-04-29T02:26:53;12.30;99.90
9329;DHT22;4703;48.748;19.142;2023-04-29T02:29:20;12.10;99.90
9329;DHT22;4703;48.748;19.142;2023-04-29T02:31:47;10.00;99.90
9329;DHT22;4703;48.748;19.142;2023-04-29T02:34:14;11.10;99.90
9329;DHT22;4703;48.748;19.142;2023-04-29T02:36:41;10.00;99.90
9329;DHT22;4703;48.748;19.142;2023-04-29T02:39:09;12.10;99.90
9329;DHT22;4703;48.748;19.142;2023-04-29T02:41:36;12.00;99.90
9329;DHT22;4703;48.748;19.142;2023-04-29T02:44:03;9.90;99.90
9329;DHT22;4703;48.748;19.142;2023-04-29T02:46:30;9.90;99.90
9329;DHT22;4703;48.748;19.142;2023-04-29T02:48:59;9.90;99.90
9329;DHT22;4703;48.748;19.142;2023-04-29T02:51:27;10.00;99.90
9329;DHT22;4703;48.748;19.142;2023-04-29T02:53:54;10.50;99.90
9329;DHT22;4703;48.748;19.142;2023-04-29T02:56:21;11.80;99.90
9329;DHT22;4703;48.748;19.142;2023-04-29T02:58:49;9.90;99.90
9329;DHT22;4703;48.748;19.142;2023-04-29T03:01:16;11.90;99.90
9329;DHT22;4703;48.748;19.142;2023-04-29T03:03:43;11.20;99.90
9329;DHT22;4703;48.748;19.142;2023-04-29T03:06:10;11.20;99.90
9329;DHT22;4703;48.748;19.142;2023-04-29T03:08:37;11.90;99.90
9329;DHT22;4703;48.748;19.142;2023-04-29T03:11:04;9.90;99.90
9329;DHT22;4703;48.748;19.142;2023-04-29T03:13:32;9.90;99.90
9329;DHT22;4703;48.748;19.142;2023-04-29T03:15:59;12.50;99.90
9329;DHT22;4703;48.748;19.142;2023-04-29T03:18:26;12.20;99.90
9329;DHT22;4703;48.748;19.142;2023-04-29T03:20:53;12.30;99.90
9329;DHT22;4703;48.748;19.142;2023-04-29T03:23:20;10.90;99.90
9329;DHT22;4703;48.748;19.142;2023-04-29T03:25:48;11.20;99.90
9329;DHT22;4703;48.748;19.142;2023-04-29T03:28:15;12.10;99.90
9329;DHT22;4703;48.748;19.142;2023-04-29T03:30:42;11.70;99.90
9329;DHT22;4703;48.748;19.142;2023-04-29T03:33:09;11.70;99.90
9329;DHT22;4703;48.748;19.142;2023-04-29T03:35:36;12.30;99.90
9329;DHT22;4703;48.748;19.142;2023-04-29T03:38:03;10.30;99.90
9329;DHT22;4703;48.748;19.142;2023-04-29T03:40:30;10.50;99.90
9329;DHT22;4703;48.748;19.142;2023-04-29T03:42:57;12.00;99.90
9329;DHT22;4703;48.748;19.142;2023-04-29T03:45:24;11.40;99.90
9329;DHT22;4703;48.748;19.142;2023-04-29T03:47:51;11.90;99.90
9329;DHT22;4703;48.748;19.142;2023-04-29T03:50:19;11.50;99.90
9329;DHT22;4703;48.748;19.142;2023-04-29T03:52:46;9.70;99.90
9329;DHT22;4703;48.748;19.142;2023-04-29T03:55:13;12.00;99.90
9329;DHT22;4703;48.748;19.142;2023-04-29T03:57:40;9.80;99.90
9329;DHT22;4703;48.748;19.142;2023-04-29T04:00:08;10.50;99.90
9329;DHT22;4703;48.748;19.142;2023-04-29T04:02:36;9.70;99.90
9329;DHT22;4703;48.748;19.142;2023-04-29T04:05:03;9.70;99.90
9329;DHT22;4703;48.748;19.142;2023-04-29T04:07:30;9.70;99.90
9329;DHT22;4703;48.748;19.142;2023-04-29T04:09:57;9.70;99.90
9329;DHT22;4703;48.748;19.142;2023-04-29T04:12:24;9.70;99.90
9329;DHT22;4703;48.748;19.142;2023-04-29T04:14:51;11.60;99.90
9329;DHT22;4703;48.748;19.142;2023-04-29T04:17:19;12.50;99.90
9329;DHT22;4703;48.748;19.142;2023-04-29T04:19:46;11.80;99.90
9329;DHT22;4703;48.748;19.142;2023-04-29T04:22:13;10.80;99.90
9329;DHT22;4703;48.748;19.142;2023-04-29T04:24:42;11.00;99.90
9329;DHT22;4703;48.748;19.142;2023-04-29T04:27:09;11.70;99.90
9329;DHT22;4703;48.748;19.142;2023-04-29T04:29:36;11.90;99.90
9329;DHT22;4703;48.748;19.142;2023-04-29T04:32:04;10.60;99.90
9329;DHT22;4703;48.748;19.142;2023-04-29T04:34:31;9.70;99.90
9329;DHT22;4703;48.748;19.142;2023-04-29T04:36:58;9.70;99.90
9329;DHT22;4703;48.748;19.142;2023-04-29T04:39:25;12.70;99.90
9329;DHT22;4703;48.748;19.142;2023-04-29T04:41:52;11.20;99.90
9329;DHT22;4703;48.748;19.142;2023-04-29T04:44:19;10.10;99.90
9329;DHT22;4703;48.748;19.142;2023-04-29T04:46:46;11.90;99.90
9329;DHT22;4703;48.748;19.142;2023-04-29T04:49:13;9.70;99.90
9329;DHT22;4703;48.748;19.142;2023-04-29T04:51:43;9.80;99.90
9329;DHT22;4703;48.748;19.142;2023-04-29T04:54:10;12.30;99.90
9329;DHT22;4703;48.748;19.142;2023-04-29T04:56:37;9.90;99.90
9329;DHT22;4703;48.748;19.142;2023-04-29T04:59:04;11.20;99.90
9329;DHT22;4703;48.748;19.142;2023-04-29T05:01:31;11.20;99.90
9329;DHT22;4703;48.748;19.142;2023-04-29T05:03:59;11.90;99.90
9329;DHT22;4703;48.748;19.142;2023-04-29T05:06:28;11.60;99.90
9329;DHT22;4703;48.748;19.142;2023-04-29T05:08:55;12.40;99.90
9329;DHT22;4703;48.748;19.142;2023-04-29T05:11:22;11.80;99.90
9329;DHT22;4703;48.748;19.142;2023-04-29T05:13:49;9.90;99.90
9329;DHT22;4703;48.748;19.142;2023-04-29T05:16:16;11.60;99.90
9329;DHT22;4703;48.748;19.142;2023-04-29T05:18:43;11.00;99.90
9329;DHT22;4703;48.748;19.142;2023-04-29T05:21:12;11.30;99.90
9329;DHT22;4703;48.748;19.142;2023-04-29T05:23:42;9.90;99.90
9329;DHT22;4703;48.748;19.142;2023-04-29T05:26:09;10.70;99.90
9329;DHT22;4703;48.748;19.142;2023-04-29T05:28:36;9.90;99.90
9329;DHT22;4703;48.748;19.142;2023-04-29T05:31:03;9.90;99.90
9329;DHT22;4703;48.748;19.142;2023-04-29T05:33:30;9.90;99.90
9329;DHT22;4703;48.748;19.142;2023-04-29T05:35:57;11.00;99.90
9329;DHT22;4703;48.748;19.142;2023-04-29T05:38:24;9.90;99.90
9329;DHT22;4703;48.748;19.142;2023-04-29T05:40:55;12.50;99.90
9329;DHT22;4703;48.748;19.142;2023-04-29T05:43:22;10.00;99.90
9329;DHT22;4703;48.748;19.142;2023-04-29T05:45:49;10.00;99.90
9329;DHT22;4703;48.748;19.142;2023-04-29T05:48:16;11.70;99.90
9329;DHT22;4703;48.748;19.142;2023-04-29T05:50:43;12.50;99.90
9329;DHT22;4703;48.748;19.142;2023-04-29T05:53:11;12.20;99.90
9329;DHT22;4703;48.748;19.142;2023-04-29T05:55:38;10.10;99.90
9329;DHT22;4703;48.748;19.142;2023-04-29T05:58:06;11.70;99.90
9329;DHT22;4703;48.748;19.142;2023-04-29T06:00:33;10.20;99.90
9329;DHT22;4703;48.748;19.142;2023-04-29T06:03:00;12.70;99.90
9329;DHT22;4703;48.748;19.142;2023-04-29T06:05:27;10.70;99.90
9329;DHT22;4703;48.748;19.142;2023-04-29T06:07:55;11.90;99.90
9329;DHT22;4703;48.748;19.142;2023-04-29T06:10:22;12.50;99.90
9329;DHT22;4703;48.748;19.142;2023-04-29T06:12:49;12.30;99.90
9329;DHT22;4703;48.748;19.142;2023-04-29T06:15:17;10.80;99.90
9329;DHT22;4703;48.748;19.142;2023-04-29T06:17:44;11.50;99.90
9329;DHT22;4703;48.748;19.142;2023-04-29T06:20:11;11.60;99.90
9329;DHT22;4703;48.748;19.142;2023-04-29T06:22:38;10.20;99.90
9329;DHT22;4703;48.748;19.142;2023-04-29T06:25:06;11.60;99.90
9329;DHT22;4703;48.748;19.142;2023-04-29T06:27:33;10.30;99.90
9329;DHT22;4703;48.748;19.142;2023-04-29T06:30:00;12.80;99.90
9329;DHT22;4703;48.748;19.142;2023-04-29T06:32:27;12.20;99.90
9329;DHT22;4703;48.748;19.142;2023-04-29T06:34:54;12.50;99.90
9329;DHT22;4703;48.748;19.142;2023-04-29T06:37:21;12.30;99.90
9329;DHT22;4703;48.748;19.142;2023-04-29T06:39:48;10.50;99.90
9329;DHT22;4703;48.748;19.142;2023-04-29T06:42:15;10.50;99.90
9329;DHT22;4703;48.748;19.142;2023-04-29T06:44:42;10.60;99.90
9329;DHT22;4703;48.748;19.142;2023-04-29T06:47:09;12.30;99.90
9329;DHT22;4703;48.748;19.142;2023-04-29T06:49:36;12.80;99.90
9329;DHT22;4703;48.748;19.142;2023-04-29T06:52:03;12.00;99.90
9329;DHT22;4703;48.748;19.142;2023-04-29T06:54:30;11.30;99.90
9329;DHT22;4703;48.748;19.142;2023-04-29T06:56:57;10.70;99.90
9329;DHT22;4703;48.748;19.142;2023-04-29T06:59:24;12.60;99.90
9329;DHT22;4703;48.748;19.142;2023-04-29T07:01:51;12.40;99.90
9329;DHT22;4703;48.748;19.142;2023-04-29T07:04:19;13.20;99.90
9329;DHT22;4703;48.748;19.142;2023-04-29T07:06:46;11.70;99.90
9329;DHT22;4703;48.748;19.142;2023-04-29T07:09:13;12.40;99.90
9329;DHT22;4703;48.748;19.142;2023-04-29T07:11:40;11.20;99.90
9329;DHT22;4703;48.748;19.142;2023-04-29T07:14:07;12.80;99.90
9329;DHT22;4703;48.748;19.142;2023-04-29T07:16:34;10.80;99.90
9329;DHT22;4703;48.748;19.142;2023-04-29T07:19:01;12.60;99.90
9329;DHT22;4703;48.748;19.142;2023-04-29T07:21:28;12.30;99.90
9329;DHT22;4703;48.748;19.142;2023-04-29T07:23:56;13.20;99.90
9329;DHT22;4703;48.748;19.142;2023-04-29T07:26:26;12.60;99.90
9329;DHT22;4703;48.748;19.142;2023-04-29T07:28:53;10.80;99.90
9329;DHT22;4703;48.748;19.142;2023-04-29T07:31:20;11.20;99.90
9329;DHT22;4703;48.748;19.142;2023-04-29T07:33:48;11.40;99.90
9329;DHT22;4703;48.748;19.142;2023-04-29T07:36:15;12.30;99.90
9329;DHT22;4703;48.748;19.142;2023-04-29T07:38:42;12.30;99.90
9329;DHT22;4703;48.748;19.142;2023-04-29T07:41:08;12.10;99.90
9329;DHT22;4703;48.748;19.142;2023-04-29T07:43:35;11.40;99.90
9329;DHT22;4703;48.748;19.142;2023-04-29T07:46:03;12.60;99.90
9329;DHT22;4703;48.748;19.142;2023-04-29T07:48:30;10.90;99.90
9329;DHT22;4703;48.748;19.142;2023-04-29T07:50:57;12.50;99.90
9329;DHT22;4703;48.748;19.142;2023-04-29T07:53:23;11.80;99.90
9329;DHT22;4703;48.748;19.142;2023-04-29T07:55:51;12.60;99.90
9329;DHT22;4703;48.748;19.142;2023-04-29T07:58:17;12.50;99.90
9329;DHT22;4703;48.748;19.142;2023-04-29T08:00:44;11.90;99.90
9329;DHT22;4703;48.748;19.142;2023-04-29T08:03:13;12.20;99.90
9329;DHT22;4703;48.748;19.142;2023-04-29T08:05:40;12.70;99.90
9329;DHT22;4703;48.748;19.142;2023-04-29T08:08:09;12.50;99.90
9329;DHT22;4703;48.748;19.142;2023-04-29T08:10:37;13.30;99.90
9329;DHT22;4703;48.748;19.142;2023-04-29T08:13:06;12.70;99.90
9329;DHT22;4703;48.748;19.142;2023-04-29T08:15:33;13.00;99.90
9329;DHT22;4703;48.748;19.142;2023-04-29T08:18:00;12.10;99.90
9329;DHT22;4703;48.748;19.142;2023-04-29T08:20:27;12.40;99.90
9329;DHT22;4703;48.748;19.142;2023-04-29T08:22:57;11.80;99.90
9329;DHT22;4703;48.748;19.142;2023-04-29T08:25:26;11.90;99.90
9329;DHT22;4703;48.748;19.142;2023-04-29T08:27:53;12.30;99.90
9329;DHT22;4703;48.748;19.142;2023-04-29T08:30:20;13.00;99.90
9329;DHT22;4703;48.748;19.142;2023-04-29T08:32:47;11.20;99.90
9329;DHT22;4703;48.748;19.142;2023-04-29T08:35:15;12.70;99.90
9329;DHT22;4703;48.748;19.142;2023-04-29T08:37:42;12.80;99.90
9329;DHT22;4703;48.748;19.142;2023-04-29T08:40:09;12.40;99.90
9329;DHT22;4703;48.748;19.142;2023-04-29T08:42:36;11.30;99.90
9329;DHT22;4703;48.748;19.142;2023-04-29T08:45:04;11.90;99.90
9329;DHT22;4703;48.748;19.142;2023-04-29T08:47:32;11.30;99.90
9329;DHT22;4703;48.748;19.142;2023-04-29T08:50:03;11.40;99.90
9329;DHT22;4703;48.748;19.142;2023-04-29T08:52:31;11.30;99.90
9329;DHT22;4703;48.748;19.142;2023-04-29T08:54:59;12.10;99.90
9329;DHT22;4703;48.748;19.142;2023-04-29T08:57:29;11.40;99.90
9329;DHT22;4703;48.748;19.142;2023-04-29T08:59:58;11.80;99.90
9329;DHT22;4703;48.748;19.142;2023-04-29T09:02:27;12.50;99.90
9329;DHT22;4703;48.748;19.142;2023-04-29T09:05:08;12.40;99.90
9329;DHT22;4703;48.748;19.142;2023-04-29T09:07:40;11.60;99.90
9329;DHT22;4703;48.748;19.142;2023-04-29T09:10:08;11.60;99.90
9329;DHT22;4703;48.748;19.142;2023-04-29T09:12:36;11.60;99.90
9329;DHT22;4703;48.748;19.142;2023-04-29T09:15:03;12.90;99.90
9329;DHT22;4703;48.748;19.142;2023-04-29T09:17:45;11.70;99.90
9329;DHT22;4703;48.748;19.142;2023-04-29T09:22:53;12.40;99.90
9329;DHT22;4703;48.748;19.142;2023-04-29T09:25:27;11.90;99.90
9329;DHT22;4703;48.748;19.142;2023-04-29T09:27:55;12.10;99.90
9329;DHT22;4703;48.748;19.142;2023-04-29T09:30:23;12.80;99.90
9329;DHT22;4703;48.748;19.142;2023-04-29T09:33:12;11.90;99.90
9329;DHT22;4703;48.748;19.142;2023-04-29T09:35:40;12.00;99.90
9329;DHT22;4703;48.748;19.142;2023-04-29T09:38:14;11.80;99.90
9329;DHT22;4703;48.748;19.142;2023-04-29T09:40:42;11.80;99.90
9329;DHT22;4703;48.748;19.142;2023-04-29T09:43:24;13.50;99.90
9329;DHT22;4703;48.748;19.142;2023-04-29T09:45:51;12.10;99.90
9329;DHT22;4703;48.748;19.142;2023-04-29T09:48:19;11.90;99.90
9329;DHT22;4703;48.748;19.142;2023-04-29T09:51:00;11.80;99.90
9329;DHT22;4703;48.748;19.142;2023-04-29T09:53:29;12.50;99.90
9329;DHT22;4703;48.748;19.142;2023-04-29T09:56:00;12.80;99.90
9329;DHT22;4703;48.748;19.142;2023-04-29T09:58:32;12.50;99.90
9329;DHT22;4703;48.748;19.142;2023-04-29T10:01:04;12.00;99.90
9329;DHT22;4703;48.748;19.142;2023-04-29T10:03:33;12.90;99.90
9329;DHT22;4703;48.748;19.142;2023-04-29T10:06:03;11.90;99.90
9329;DHT22;4703;48.748;19.142;2023-04-29T10:08:32;11.90;99.90
9329;DHT22;4703;48.748;19.142;2023-04-29T10:11:01;12.00;99.90
9329;DHT22;4703;48.748;19.142;2023-04-29T10:13:30;13.20;99.90
9329;DHT22;4703;48.748;19.142;2023-04-29T10:18:55;12.10;99.90
9329;DHT22;4703;48.748;19.142;2023-04-29T10:21:31;12.60;99.90
9329;DHT22;4703;48.748;19.142;2023-04-29T10:24:01;12.30;99.90
9329;DHT22;4703;48.748;19.142;2023-04-29T10:26:29;13.30;99.90
9329;DHT22;4703;48.748;19.142;2023-04-29T10:28:58;14.10;99.90
9329;DHT22;4703;48.748;19.142;2023-04-29T10:31:26;13.30;99.90
9329;DHT22;4703;48.748;19.142;2023-04-29T10:33:57;14.00;99.90
9329;DHT22;4703;48.748;19.142;2023-04-29T10:36:24;12.70;99.90
9329;DHT22;4703;48.748;19.142;2023-04-29T10:38:57;13.50;99.90
9329;DHT22;4703;48.748;19.142;2023-04-29T10:41:27;13.50;99.90
9329;DHT22;4703;48.748;19.142;2023-04-29T10:43:58;13.70;99.90
9329;DHT22;4703;48.748;19.142;2023-04-29T10:46:27;14.50;99.90
9329;DHT22;4703;48.748;19.142;2023-04-29T10:49:02;13.00;99.40
9329;DHT22;4703;48.748;19.142;2023-04-29T10:51:40;13.00;99.40
9329;DHT22;4703;48.748;19.142;2023-04-29T10:54:13;12.90;99.60
9329;DHT22;4703;48.748;19.142;2023-04-29T10:56:49;12.90;99.90
9329;DHT22;4703;48.748;19.142;2023-04-29T11:01:54;13.00;99.10
9329;DHT22;4703;48.748;19.142;2023-04-29T11:04:22;13.00;99.10
9329;DHT22;4703;48.748;19.142;2023-04-29T11:06:56;14.20;99.70
9329;DHT22;4703;48.748;19.142;2023-04-29T11:09:26;13.10;99.30
9329;DHT22;4703;48.748;19.142;2023-04-29T11:12:04;13.60;99.70
9329;DHT22;4703;48.748;19.142;2023-04-29T11:14:42;13.30;99.30
9329;DHT22;4703;48.748;19.142;2023-04-29T11:17:16;13.40;99.60
9329;DHT22;4703;48.748;19.142;2023-04-29T11:19:52;13.40;99.20
9329;DHT22;4703;48.748;19.142;2023-04-29T11:24:49;13.50;98.30
9329;DHT22;4703;48.748;19.142;2023-04-29T11:27:25;13.70;98.20
9329;DHT22;4703;48.748;19.142;2023-04-29T11:29:55;13.90;98.50
9329;DHT22;4703;48.748;19.142;2023-04-29T11:32:28;13.60;99.00
9329;DHT22;4703;48.748;19.142;2023-04-29T11:35:12;14.00;98.60
9329;DHT22;4703;48.748;19.142;2023-04-29T11:37:44;13.70;98.30
9329;DHT22;4703;48.748;19.142;2023-04-29T11:40:12;13.70;98.70
9329;DHT22;4703;48.748;19.142;2023-04-29T11:42:43;13.70;98.80
9329;DHT22;4703;48.748;19.142;2023-04-29T11:45:12;14.10;98.20
9329;DHT22;4703;48.748;19.142;2023-04-29T11:47:45;13.80;97.30
9329;DHT22;4703;48.748;19.142;2023-04-29T11:50:13;13.90;97.90
9329;DHT22;4703;48.748;19.142;2023-04-29T11:52:46;14.00;97.40
9329;DHT22;4703;48.748;19.142;2023-04-29T11:55:15;14.30;97.30
9329;DHT22;4703;48.748;19.142;2023-04-29T11:57:43;14.50;97.30
9329;DHT22;4703;48.748;19.142;2023-04-29T12:00:13;14.80;97.10
9329;DHT22;4703;48.748;19.142;2023-04-29T12:02:44;15.10;96.10
9329;DHT22;4703;48.748;19.142;2023-04-29T12:05:14;15.60;95.30
9329;DHT22;4703;48.748;19.142;2023-04-29T12:07:43;15.70;94.90
9329;DHT22;4703;48.748;19.142;2023-04-29T12:10:11;16.10;94.60
9329;DHT22;4703;48.748;19.142;2023-04-29T12:12:38;16.20;94.40
9329;DHT22;4703;48.748;19.142;2023-04-29T12:15:13;16.20;93.90
9329;DHT22;4703;48.748;19.142;2023-04-29T12:17:41;16.10;93.70
9329;DHT22;4703;48.748;19.142;2023-04-29T12:20:09;16.30;93.80
9329;DHT22;4703;48.748;19.142;2023-04-29T12:22:37;15.80;93.50
9329;DHT22;4703;48.748;19.142;2023-04-29T12:25:05;15.90;94.10
9329;DHT22;4703;48.748;19.142;2023-04-29T12:27:34;15.60;93.90
9329;DHT22;4703;48.748;19.142;2023-04-29T12:30:06;15.50;93.80
9329;DHT22;4703;48.748;19.142;2023-04-29T12:32:35;15.30;94.40
9329;DHT22;4703;48.748;19.142;2023-04-29T12:35:03;17.20;95.50
9329;DHT22;4703;48.748;19.142;2023-04-29T12:37:30;15.20;95.10
9329;DHT22;4703;48.748;19.142;2023-04-29T12:39:57;15.80;95.60
9329;DHT22;4703;48.748;19.142;2023-04-29T12:42:31;15.20;95.10
9329;DHT22;4703;48.748;19.142;2023-04-29T12:44:59;17.40;96.10
9329;DHT22;4703;48.748;19.142;2023-04-29T12:47:31;15.00;94.20
9329;DHT22;4703;48.748;19.142;2023-04-29T12:50:02;14.90;93.90
9329;DHT22;4703;48.748;19.142;2023-04-29T12:52:29;14.90;94.40
9329;DHT22;4703;48.748;19.142;2023-04-29T12:54:57;15.10;94.60
9329;DHT22;4703;48.748;19.142;2023-04-29T12:57:23;14.90;94.70
9329;DHT22;4703;48.748;19.142;2023-04-29T12:59:52;15.00;94.60
9329;DHT22;4703;48.748;19.142;2023-04-29T13:02:19;15.20;95.00
9329;DHT22;4703;48.748;19.142;2023-04-29T13:04:46;15.30;95.00
9329;DHT22;4703;48.748;19.142;2023-04-29T13:07:13;15.20;94.10
9329;DHT22;4703;48.748;19.142;2023-04-29T13:09:41;15.30;94.50
9329;DHT22;4703;48.748;19.142;2023-04-29T13:12:08;15.50;94.20
9329;DHT22;4703;48.748;19.142;2023-04-29T13:14:35;15.40;95.10
9329;DHT22;4703;48.748;19.142;2023-04-29T13:17:02;15.50;95.20
9329;DHT22;4703;48.748;19.142;2023-04-29T13:19:29;15.70;94.60
9329;DHT22;4703;48.748;19.142;2023-04-29T13:22:16;16.10;94.50
9329;DHT22;4703;48.748;19.142;2023-04-29T13:24:43;17.80;94.60
9329;DHT22;4703;48.748;19.142;2023-04-29T13:27:10;16.00;93.60
9329;DHT22;4703;48.748;19.142;2023-04-29T13:29:37;15.90;93.60
9329;DHT22;4703;48.748;19.142;2023-04-29T13:32:04;15.90;94.00
9329;DHT22;4703;48.748;19.142;2023-04-29T13:34:31;16.10;94.60
9329;DHT22;4703;48.748;19.142;2023-04-29T13:36:58;15.80;94.10
9329;DHT22;4703;48.748;19.142;2023-04-29T13:39:25;16.20;93.80
9329;DHT22;4703;48.748;19.142;2023-04-29T13:41:52;16.10;94.20
9329;DHT22;4703;48.748;19.142;2023-04-29T13:44:24;15.50;94.00
9329;DHT22;4703;48.748;19.142;2023-04-29T13:47:11;15.40;94.20
9329;DHT22;4703;48.748;19.142;2023-04-29T13:49:39;15.50;94.10
9329;DHT22;4703;48.748;19.142;2023-04-29T13:52:10;15.30;94.20
9329;DHT22;4703;48.748;19.142;2023-04-29T13:54:40;16.60;95.10
9329;DHT22;4703;48.748;19.142;2023-04-29T13:57:09;15.10;94.60
9329;DHT22;4703;48.748;19.142;2023-04-29T13:59:39;15.70;94.80
9329;DHT22;4703;48.748;19.142;2023-04-29T14:02:17;14.90;95.20
9329;DHT22;4703;48.748;19.142;2023-04-29T14:04:47;15.00;95.60
9329;DHT22;4703;48.748;19.142;2023-04-29T14:07:14;14.70;96.10
9329;DHT22;4703;48.748;19.142;2023-04-29T14:09:42;14.60;96.30
9329;DHT22;4703;48.748;19.142;2023-04-29T14:12:09;14.40;96.30
9329;DHT22;4703;48.748;19.142;2023-04-29T14:14:36;14.30;96.20
9329;DHT22;4703;48.748;19.142;2023-04-29T14:17:03;14.40;96.40
9329;DHT22;4703;48.748;19.142;2023-04-29T14:19:30;15.30;97.30
9329;DHT22;4703;48.748;19.142;2023-04-29T14:21:57;14.40;96.90
9329;DHT22;4703;48.748;19.142;2023-04-29T14:24:24;14.40;97.00
9329;DHT22;4703;48.748;19.142;2023-04-29T14:26:51;13.90;97.40
9329;DHT22;4703;48.748;19.142;2023-04-29T14:29:18;13.80;98.20
9329;DHT22;4703;48.748;19.142;2023-04-29T14:31:45;13.80;98.80
9329;DHT22;4703;48.748;19.142;2023-04-29T14:34:13;13.90;99.40
9329;DHT22;4703;48.748;19.142;2023-04-29T14:36:40;14.40;99.90
9329;DHT22;4703;48.748;19.142;2023-04-29T14:39:06;13.80;99.90
9329;DHT22;4703;48.748;19.142;2023-04-29T14:41:34;13.80;99.90
9329;DHT22;4703;48.748;19.142;2023-04-29T14:44:01;14.20;99.90
9329;DHT22;4703;48.748;19.142;2023-04-29T14:46:28;14.00;99.90
9329;DHT22;4703;48.748;19.142;2023-04-29T14:48:57;13.90;99.90
9329;DHT22;4703;48.748;19.142;2023-04-29T14:51:24;14.60;99.90
9329;DHT22;4703;48.748;19.142;2023-04-29T14:53:51;14.30;99.90
9329;DHT22;4703;48.748;19.142;2023-04-29T14:56:18;14.00;99.90
9329;DHT22;4703;48.748;19.142;2023-04-29T14:58:45;14.10;99.90
9329;DHT22;4703;48.748;19.142;2023-04-29T15:01:12;15.00;99.90
9329;DHT22;4703;48.748;19.142;2023-04-29T15:03:39;14.60;99.90
9329;DHT22;4703;48.748;19.142;2023-04-29T15:06:10;14.90;99.90
9329;DHT22;4703;48.748;19.142;2023-04-29T15:08:38;15.20;99.90
9329;DHT22;4703;48.748;19.142;2023-04-29T15:11:05;15.30;99.90
9329;DHT22;4703;48.748;19.142;2023-04-29T15:13:32;15.80;99.70
9329;DHT22;4703;48.748;19.142;2023-04-29T15:15:59;15.30;99.60
9329;DHT22;4703;48.748;19.142;2023-04-29T15:18:26;15.60;99.90
9329;DHT22;4703;48.748;19.142;2023-04-29T15:20:53;15.20;99.70
9329;DHT22;4703;48.748;19.142;2023-04-29T15:23:20;14.90;99.50
9329;DHT22;4703;48.748;19.142;2023-04-29T15:25:47;14.90;99.80
9329;DHT22;4703;48.748;19.142;2023-04-29T15:28:14;15.20;99.70
9329;DHT22;4703;48.748;19.142;2023-04-29T15:30:41;15.50;99.90
9329;DHT22;4703;48.748;19.142;2023-04-29T15:33:08;14.70;99.90
9329;DHT22;4703;48.748;19.142;2023-04-29T15:35:35;15.50;99.90
9329;DHT22;4703;48.748;19.142;2023-04-29T15:38:02;15.00;99.90
9329;DHT22;4703;48.748;19.142;2023-04-29T15:40:29;15.70;99.90
9329;DHT22;4703;48.748;19.142;2023-04-29T15:42:56;15.50;99.90
9329;DHT22;4703;48.748;19.142;2023-04-29T15:45:23;15.60;99.20
9329;DHT22;4703;48.748;19.142;2023-04-29T15:47:50;16.10;98.50
9329;DHT22;4703;48.748;19.142;2023-04-29T15:50:17;15.90;98.40
9329;DHT22;4703;48.748;19.142;2023-04-29T15:52:44;16.00;99.00
9329;DHT22;4703;48.748;19.142;2023-04-29T15:55:12;15.90;99.20
9329;DHT22;4703;48.748;19.142;2023-04-29T15:57:39;15.60;98.60
9329;DHT22;4703;48.748;19.142;2023-04-29T16:00:07;15.70;98.80
9329;DHT22;4703;48.748;19.142;2023-04-29T16:02:35;15.50;98.80
9329;DHT22;4703;48.748;19.142;2023-04-29T16:05:02;15.50;98.70
9329;DHT22;4703;48.748;19.142;2023-04-29T16:07:29;15.40;98.80
9329;DHT22;4703;48.748;19.142;2023-04-29T16:09:56;16.10;99.40
9329;DHT22;4703;48.748;19.142;2023-04-29T16:12:23;15.50;99.10
9329;DHT22;4703;48.748;19.142;2023-04-29T16:14:50;15.90;99.60